sensor_id;sensor_type;location;lat;lon;timestamp;P1;durP1;ratioP1;P2;durP2;ratioP2
2868;SDS011;1442;47.448;8.582;2023-02-16T00:03:59;48.95;;;22.55;;
2868;SDS011;1442;47.448;8.582;2023-02-16T00:06:26;40.30;;;21.48;;
2868;SDS011;1442;47.448;8.582;2023-02-16T00:08:54;45.63;;;22.23;;
2868;SDS011;1442;47.448;8.582;2023-02-16T00:11:23;36.65;;;19.73;;
2868;SDS011;1442;47.448;8.582;2023-02-16T00:14:10;36.40;;;18.08;;
2868;SDS011;1442;47.448;8.582;2023-02-16T00:16:37;46.88;;;18.60;;
2868;SDS011;1442;47.448;8.582;2023-02-16T00:19:12;45.60;;;18.48;;
2868;SDS011;1442;47.448;8.582;2023-02-16T00:21:41;36.22;;;18.05;;
2868;SDS011;1442;47.448;8.582;2023-02-16T00:24:08;33.17;;;17.92;;
2868;SDS011;1442;47.448;8.582;2023-02-16T00:26:36;31.33;;;18.60;;
2868;SDS011;1442;47.448;8.582;2023-02-16T00:29:03;36.63;;;18.42;;
2868;SDS011;1442;47.448;8.582;2023-02-16T00:31:30;38.50;;;18.23;;
2868;SDS011;1442;47.448;8.582;2023-02-16T00:33:57;34.95;;;18.02;;
2868;SDS011;1442;47.448;8.582;2023-02-16T00:36:26;51.63;;;20.75;;
2868;SDS011;1442;47.448;8.582;2023-02-16T00:38:53;46.17;;;20.80;;
2868;SDS011;1442;47.448;8.582;2023-02-16T00:41:21;36.40;;;18.98;;
2868;SDS011;1442;47.448;8.582;2023-02-16T00:44:09;38.78;;;20.00;;
2868;SDS011;1442;47.448;8.582;2023-02-16T00:46:39;45.00;;;19.80;;
2868;SDS011;1442;47.448;8.582;2023-02-16T00:49:08;36.90;;;19.52;;
2868;SDS011;1442;47.448;8.582;2023-02-16T00:51:40;39.42;;;19.40;;
2868;SDS011;1442;47.448;8.582;2023-02-16T00:54:07;38.85;;;19.30;;
2868;SDS011;1442;47.448;8.582;2023-02-16T00:56:34;43.08;;;19.70;;
2868;SDS011;1442;47.448;8.582;2023-02-16T00:59:01;36.13;;;19.08;;
2868;SDS011;1442;47.448;8.582;2023-02-16T01:01:29;40.10;;;20.92;;
2868;SDS011;1442;47.448;8.582;2023-02-16T01:03:57;46.72;;;21.58;;
2868;SDS011;1442;47.448;8.582;2023-02-16T01:06:26;42.53;;;21.05;;
2868;SDS011;1442;47.448;8.582;2023-02-16T01:09:13;40.08;;;21.20;;
2868;SDS011;1442;47.448;8.582;2023-02-16T01:11:58;41.80;;;21.05;;
2868;SDS011;1442;47.448;8.582;2023-02-16T01:14:26;48.33;;;21.42;;
2868;SDS011;1442;47.448;8.582;2023-02-16T01:16:53;35.42;;;19.80;;
2868;SDS011;1442;47.448;8.582;2023-02-16T01:19:20;40.65;;;19.25;;
2868;SDS011;1442;47.448;8.582;2023-02-16T01:21:48;38.63;;;20.45;;
2868;SDS011;1442;47.448;8.582;2023-02-16T01:24:16;34.53;;;18.65;;
2868;SDS011;1442;47.448;8.582;2023-02-16T01:26:45;38.60;;;19.00;;
2868;SDS011;1442;47.448;8.582;2023-02-16T01:29:13;41.25;;;20.77;;
2868;SDS011;1442;47.448;8.582;2023-02-16T01:31:41;37.03;;;19.17;;
2868;SDS011;1442;47.448;8.582;2023-02-16T01:34:08;37.55;;;20.02;;
2868;SDS011;1442;47.448;8.582;2023-02-16T01:36:36;37.42;;;20.15;;
2868;SDS011;1442;47.448;8.582;2023-02-16T01:39:04;39.50;;;19.88;;
2868;SDS011;1442;47.448;8.582;2023-02-16T01:41:43;32.67;;;19.48;;
2868;SDS011;1442;47.448;8.582;2023-02-16T01:44:11;36.30;;;19.55;;
2868;SDS011;1442;47.448;8.582;2023-02-16T01:46:42;37.03;;;20.10;;
2868;SDS011;1442;47.448;8.582;2023-02-16T01:49:11;36.35;;;20.08;;
2868;SDS011;1442;47.448;8.582;2023-02-16T01:51:41;32.38;;;17.85;;
2868;SDS011;1442;47.448;8.582;2023-02-16T01:54:13;34.80;;;18.48;;
2868;SDS011;1442;47.448;8.582;2023-02-16T01:56:46;32.60;;;17.70;;
2868;SDS011;1442;47.448;8.582;2023-02-16T01:59:15;37.05;;;17.17;;
2868;SDS011;1442;47.448;8.582;2023-02-16T02:04:19;30.20;;;16.58;;
2868;SDS011;1442;47.448;8.582;2023-02-16T02:07:05;33.72;;;17.92;;
2868;SDS011;1442;47.448;8.582;2023-02-16T02:09:34;32.13;;;17.13;;
2868;SDS011;1442;47.448;8.582;2023-02-16T02:12:05;29.92;;;17.58;;
2868;SDS011;1442;47.448;8.582;2023-02-16T02:17:02;30.42;;;16.15;;
2868;SDS011;1442;47.448;8.582;2023-02-16T02:19:35;29.80;;;16.45;;
2868;SDS011;1442;47.448;8.582;2023-02-16T02:22:11;31.75;;;17.20;;
2868;SDS011;1442;47.448;8.582;2023-02-16T02:25:12;31.70;;;17.42;;
2868;SDS011;1442;47.448;8.582;2023-02-16T02:27:49;28.77;;;15.80;;
2868;SDS011;1442;47.448;8.582;2023-02-16T02:30:23;32.60;;;17.23;;
2868;SDS011;1442;47.448;8.582;2023-02-16T02:32:56;35.05;;;19.63;;
2868;SDS011;1442;47.448;8.582;2023-02-16T02:35:33;35.22;;;18.02;;
2868;SDS011;1442;47.448;8.582;2023-02-16T02:40:31;34.03;;;16.67;;
2868;SDS011;1442;47.448;8.582;2023-02-16T02:43:05;29.50;;;17.25;;
2868;SDS011;1442;47.448;8.582;2023-02-16T02:45:33;29.70;;;16.93;;
2868;SDS011;1442;47.448;8.582;2023-02-16T02:48:02;34.28;;;16.45;;
2868;SDS011;1442;47.448;8.582;2023-02-16T02:50:40;31.33;;;15.75;;
2868;SDS011;1442;47.448;8.582;2023-02-16T02:53:30;31.80;;;16.45;;
2868;SDS011;1442;47.448;8.582;2023-02-16T02:55:58;29.42;;;15.98;;
2868;SDS011;1442;47.448;8.582;2023-02-16T02:58:55;29.75;;;16.35;;
2868;SDS011;1442;47.448;8.582;2023-02-16T03:01:41;34.38;;;15.88;;
2868;SDS011;1442;47.448;8.582;2023-02-16T03:04:10;35.10;;;16.38;;
2868;SDS011;1442;47.448;8.582;2023-02-16T03:06:40;33.55;;;16.27;;
2868;SDS011;1442;47.448;8.582;2023-02-16T03:09:09;33.28;;;17.17;;
2868;SDS011;1442;47.448;8.582;2023-02-16T03:11:38;28.85;;;14.82;;
2868;SDS011;1442;47.448;8.582;2023-02-16T03:14:25;30.08;;;15.27;;
2868;SDS011;1442;47.448;8.582;2023-02-16T03:16:56;30.90;;;16.67;;
2868;SDS011;1442;47.448;8.582;2023-02-16T03:19:41;32.00;;;16.17;;
2868;SDS011;1442;47.448;8.582;2023-02-16T03:22:26;31.85;;;16.38;;
2868;SDS011;1442;47.448;8.582;2023-02-16T03:25:12;32.65;;;17.08;;
2868;SDS011;1442;47.448;8.582;2023-02-16T03:27:57;33.25;;;16.85;;
2868;SDS011;1442;47.448;8.582;2023-02-16T03:30:43;31.65;;;17.10;;
2868;SDS011;1442;47.448;8.582;2023-02-16T03:33:11;33.55;;;16.92;;
2868;SDS011;1442;47.448;8.582;2023-02-16T03:35:38;31.15;;;16.50;;
2868;SDS011;1442;47.448;8.582;2023-02-16T03:38:06;30.23;;;16.88;;
2868;SDS011;1442;47.448;8.582;2023-02-16T03:40:33;39.15;;;18.15;;
2868;SDS011;1442;47.448;8.582;2023-02-16T03:43:04;32.42;;;16.63;;
2868;SDS011;1442;47.448;8.582;2023-02-16T03:45:32;34.88;;;17.40;;
2868;SDS011;1442;47.448;8.582;2023-02-16T03:48:01;30.58;;;16.38;;
2868;SDS011;1442;47.448;8.582;2023-02-16T03:50:28;34.60;;;16.65;;
2868;SDS011;1442;47.448;8.582;2023-02-16T03:52:56;31.30;;;15.57;;
2868;SDS011;1442;47.448;8.582;2023-02-16T03:55:30;32.60;;;15.77;;
2868;SDS011;1442;47.448;8.582;2023-02-16T03:57:58;32.85;;;16.80;;
2868;SDS011;1442;47.448;8.582;2023-02-16T04:00:25;29.00;;;15.93;;
2868;SDS011;1442;47.448;8.582;2023-02-16T04:02:53;34.45;;;16.92;;
2868;SDS011;1442;47.448;8.582;2023-02-16T04:05:21;31.30;;;15.50;;
2868;SDS011;1442;47.448;8.582;2023-02-16T04:07:48;34.47;;;17.15;;
2868;SDS011;1442;47.448;8.582;2023-02-16T04:10:16;31.35;;;16.63;;
2868;SDS011;1442;47.448;8.582;2023-02-16T04:12:43;36.83;;;16.88;;
2868;SDS011;1442;47.448;8.582;2023-02-16T04:15:10;35.60;;;15.88;;
2868;SDS011;1442;47.448;8.582;2023-02-16T04:17:37;33.38;;;17.15;;
2868;SDS011;1442;47.448;8.582;2023-02-16T04:20:05;29.65;;;15.77;;
2868;SDS011;1442;47.448;8.582;2023-02-16T04:22:34;30.15;;;16.17;;
2868;SDS011;1442;47.448;8.582;2023-02-16T04:25:01;34.70;;;17.10;;
2868;SDS011;1442;47.448;8.582;2023-02-16T04:27:29;29.05;;;15.30;;
2868;SDS011;1442;47.448;8.582;2023-02-16T04:29:56;31.08;;;15.65;;
2868;SDS011;1442;47.448;8.582;2023-02-16T04:32:23;27.13;;;16.05;;
2868;SDS011;1442;47.448;8.582;2023-02-16T04:34:50;25.73;;;14.32;;
2868;SDS011;1442;47.448;8.582;2023-02-16T04:37:17;25.15;;;14.75;;
2868;SDS011;1442;47.448;8.582;2023-02-16T04:39:46;24.75;;;14.13;;
2868;SDS011;1442;47.448;8.582;2023-02-16T04:42:13;23.52;;;14.45;;
2868;SDS011;1442;47.448;8.582;2023-02-16T04:44:40;23.95;;;14.35;;
2868;SDS011;1442;47.448;8.582;2023-02-16T04:47:08;28.27;;;15.23;;
2868;SDS011;1442;47.448;8.582;2023-02-16T04:49:35;25.90;;;14.50;;
2868;SDS011;1442;47.448;8.582;2023-02-16T04:52:02;25.23;;;14.98;;
2868;SDS011;1442;47.448;8.582;2023-02-16T04:54:29;24.60;;;14.50;;
2868;SDS011;1442;47.448;8.582;2023-02-16T04:56:58;28.70;;;14.60;;
2868;SDS011;1442;47.448;8.582;2023-02-16T04:59:25;31.27;;;16.63;;
2868;SDS011;1442;47.448;8.582;2023-02-16T05:01:52;28.90;;;16.60;;
2868;SDS011;1442;47.448;8.582;2023-02-16T05:04:19;27.67;;;16.05;;
2868;SDS011;1442;47.448;8.582;2023-02-16T05:06:47;22.92;;;13.35;;
2868;SDS011;1442;47.448;8.582;2023-02-16T05:09:14;27.77;;;14.60;;
2868;SDS011;1442;47.448;8.582;2023-02-16T05:11:41;25.83;;;13.75;;
2868;SDS011;1442;47.448;8.582;2023-02-16T05:14:28;23.00;;;13.30;;
2868;SDS011;1442;47.448;8.582;2023-02-16T05:17:09;25.60;;;14.50;;
2868;SDS011;1442;47.448;8.582;2023-02-16T05:19:36;26.65;;;13.60;;
2868;SDS011;1442;47.448;8.582;2023-02-16T05:22:05;26.15;;;14.13;;
2868;SDS011;1442;47.448;8.582;2023-02-16T05:24:32;26.52;;;14.38;;
2868;SDS011;1442;47.448;8.582;2023-02-16T05:27:00;28.27;;;14.63;;
2868;SDS011;1442;47.448;8.582;2023-02-16T05:29:28;29.52;;;16.08;;
2868;SDS011;1442;47.448;8.582;2023-02-16T05:31:56;32.38;;;15.27;;
2868;SDS011;1442;47.448;8.582;2023-02-16T05:34:23;34.42;;;15.85;;
2868;SDS011;1442;47.448;8.582;2023-02-16T05:36:51;31.73;;;15.10;;
2868;SDS011;1442;47.448;8.582;2023-02-16T05:39:19;29.35;;;15.10;;
2868;SDS011;1442;47.448;8.582;2023-02-16T05:41:46;28.67;;;15.07;;
2868;SDS011;1442;47.448;8.582;2023-02-16T05:44:13;28.88;;;14.95;;
2868;SDS011;1442;47.448;8.582;2023-02-16T05:46:43;31.38;;;15.85;;
2868;SDS011;1442;47.448;8.582;2023-02-16T05:49:10;31.42;;;16.15;;
2868;SDS011;1442;47.448;8.582;2023-02-16T05:51:38;31.65;;;15.45;;
2868;SDS011;1442;47.448;8.582;2023-02-16T05:54:05;31.13;;;15.13;;
2868;SDS011;1442;47.448;8.582;2023-02-16T05:56:34;27.20;;;15.13;;
2868;SDS011;1442;47.448;8.582;2023-02-16T05:59:02;28.50;;;15.15;;
2868;SDS011;1442;47.448;8.582;2023-02-16T06:01:29;31.38;;;15.20;;
2868;SDS011;1442;47.448;8.582;2023-02-16T06:03:57;29.65;;;14.57;;
2868;SDS011;1442;47.448;8.582;2023-02-16T06:06:24;31.48;;;14.70;;
2868;SDS011;1442;47.448;8.582;2023-02-16T06:08:52;33.05;;;14.88;;
2868;SDS011;1442;47.448;8.582;2023-02-16T06:11:19;25.02;;;15.00;;
2868;SDS011;1442;47.448;8.582;2023-02-16T06:14:01;28.10;;;14.18;;
2868;SDS011;1442;47.448;8.582;2023-02-16T06:16:29;29.42;;;15.55;;
2868;SDS011;1442;47.448;8.582;2023-02-16T06:18:57;29.10;;;15.43;;
2868;SDS011;1442;47.448;8.582;2023-02-16T06:21:25;26.90;;;14.25;;
2868;SDS011;1442;47.448;8.582;2023-02-16T06:23:53;29.80;;;14.43;;
2868;SDS011;1442;47.448;8.582;2023-02-16T06:26:20;23.50;;;13.82;;
2868;SDS011;1442;47.448;8.582;2023-02-16T06:28:47;25.63;;;14.57;;
2868;SDS011;1442;47.448;8.582;2023-02-16T06:31:14;27.70;;;14.10;;
2868;SDS011;1442;47.448;8.582;2023-02-16T06:33:41;26.55;;;13.90;;
2868;SDS011;1442;47.448;8.582;2023-02-16T06:36:10;25.40;;;14.20;;
2868;SDS011;1442;47.448;8.582;2023-02-16T06:38:38;22.23;;;12.98;;
2868;SDS011;1442;47.448;8.582;2023-02-16T06:41:05;21.02;;;13.32;;
2868;SDS011;1442;47.448;8.582;2023-02-16T06:43:32;21.83;;;11.93;;
2868;SDS011;1442;47.448;8.582;2023-02-16T06:46:00;27.08;;;12.32;;
2868;SDS011;1442;47.448;8.582;2023-02-16T06:48:27;21.13;;;12.85;;
2868;SDS011;1442;47.448;8.582;2023-02-16T06:50:54;26.27;;;14.05;;
2868;SDS011;1442;47.448;8.582;2023-02-16T06:53:23;24.05;;;12.98;;
2868;SDS011;1442;47.448;8.582;2023-02-16T06:55:50;24.63;;;13.35;;
2868;SDS011;1442;47.448;8.582;2023-02-16T06:58:17;28.25;;;13.48;;
2868;SDS011;1442;47.448;8.582;2023-02-16T07:00:44;23.27;;;13.75;;
2868;SDS011;1442;47.448;8.582;2023-02-16T07:03:12;26.25;;;14.45;;
2868;SDS011;1442;47.448;8.582;2023-02-16T07:05:39;30.55;;;14.23;;
2868;SDS011;1442;47.448;8.582;2023-02-16T07:08:08;23.20;;;13.48;;
2868;SDS011;1442;47.448;8.582;2023-02-16T07:10:36;24.23;;;13.88;;
2868;SDS011;1442;47.448;8.582;2023-02-16T07:13:03;24.45;;;14.05;;
2868;SDS011;1442;47.448;8.582;2023-02-16T07:15:31;28.08;;;13.68;;
2868;SDS011;1442;47.448;8.582;2023-02-16T07:17:58;23.27;;;14.07;;
2868;SDS011;1442;47.448;8.582;2023-02-16T07:20:25;37.75;;;13.60;;
2868;SDS011;1442;47.448;8.582;2023-02-16T07:22:52;23.55;;;13.57;;
2868;SDS011;1442;47.448;8.582;2023-02-16T07:25:19;32.58;;;13.90;;
2868;SDS011;1442;47.448;8.582;2023-02-16T07:27:50;25.17;;;15.15;;
2868;SDS011;1442;47.448;8.582;2023-02-16T07:30:18;35.53;;;15.23;;
2868;SDS011;1442;47.448;8.582;2023-02-16T07:32:45;27.02;;;13.48;;
2868;SDS011;1442;47.448;8.582;2023-02-16T07:35:13;33.10;;;14.52;;
2868;SDS011;1442;47.448;8.582;2023-02-16T07:37:40;27.85;;;15.05;;
2868;SDS011;1442;47.448;8.582;2023-02-16T07:40:07;30.63;;;14.18;;
2868;SDS011;1442;47.448;8.582;2023-02-16T07:42:35;29.08;;;14.27;;
2868;SDS011;1442;47.448;8.582;2023-02-16T07:45:04;35.60;;;14.35;;
2868;SDS011;1442;47.448;8.582;2023-02-16T07:47:31;28.40;;;14.85;;
2868;SDS011;1442;47.448;8.582;2023-02-16T07:49:59;26.63;;;13.80;;
2868;SDS011;1442;47.448;8.582;2023-02-16T07:52:26;39.00;;;16.02;;
2868;SDS011;1442;47.448;8.582;2023-02-16T07:54:55;30.65;;;15.32;;
2868;SDS011;1442;47.448;8.582;2023-02-16T07:57:23;29.25;;;15.05;;
2868;SDS011;1442;47.448;8.582;2023-02-16T07:59:50;31.15;;;14.95;;
2868;SDS011;1442;47.448;8.582;2023-02-16T08:02:19;35.33;;;16.02;;
2868;SDS011;1442;47.448;8.582;2023-02-16T08:04:47;31.65;;;16.20;;
2868;SDS011;1442;47.448;8.582;2023-02-16T08:07:17;29.27;;;15.82;;
2868;SDS011;1442;47.448;8.582;2023-02-16T08:09:44;34.65;;;16.17;;
2868;SDS011;1442;47.448;8.582;2023-02-16T08:12:12;35.15;;;14.70;;
2868;SDS011;1442;47.448;8.582;2023-02-16T08:14:39;35.05;;;15.13;;
2868;SDS011;1442;47.448;8.582;2023-02-16T08:17:07;29.90;;;16.75;;
2868;SDS011;1442;47.448;8.582;2023-02-16T08:19:36;37.20;;;14.80;;
2868;SDS011;1442;47.448;8.582;2023-02-16T08:22:04;27.83;;;14.38;;
2868;SDS011;1442;47.448;8.582;2023-02-16T08:24:32;36.28;;;14.88;;
2868;SDS011;1442;47.448;8.582;2023-02-16T08:26:59;23.83;;;13.13;;
2868;SDS011;1442;47.448;8.582;2023-02-16T08:29:28;26.63;;;12.60;;
2868;SDS011;1442;47.448;8.582;2023-02-16T08:31:55;29.08;;;13.07;;
2868;SDS011;1442;47.448;8.582;2023-02-16T08:34:23;28.58;;;14.25;;
2868;SDS011;1442;47.448;8.582;2023-02-16T08:36:52;30.85;;;14.45;;
2868;SDS011;1442;47.448;8.582;2023-02-16T08:39:20;24.67;;;13.40;;
2868;SDS011;1442;47.448;8.582;2023-02-16T08:41:48;29.73;;;13.65;;
2868;SDS011;1442;47.448;8.582;2023-02-16T08:44:16;24.80;;;12.65;;
2868;SDS011;1442;47.448;8.582;2023-02-16T08:46:44;31.17;;;13.45;;
2868;SDS011;1442;47.448;8.582;2023-02-16T08:49:12;30.33;;;14.82;;
2868;SDS011;1442;47.448;8.582;2023-02-16T08:51:41;27.20;;;13.55;;
2868;SDS011;1442;47.448;8.582;2023-02-16T08:54:13;22.98;;;13.90;;
2868;SDS011;1442;47.448;8.582;2023-02-16T08:56:40;34.83;;;15.32;;
2868;SDS011;1442;47.448;8.582;2023-02-16T08:59:10;26.90;;;13.77;;
2868;SDS011;1442;47.448;8.582;2023-02-16T09:01:37;56.63;;;16.13;;
2868;SDS011;1442;47.448;8.582;2023-02-16T09:04:05;44.88;;;16.20;;
2868;SDS011;1442;47.448;8.582;2023-02-16T09:06:35;36.08;;;15.00;;
2868;SDS011;1442;47.448;8.582;2023-02-16T09:09:02;35.60;;;16.42;;
2868;SDS011;1442;47.448;8.582;2023-02-16T09:11:31;37.03;;;18.10;;
2868;SDS011;1442;47.448;8.582;2023-02-16T09:13:59;31.88;;;18.67;;
2868;SDS011;1442;47.448;8.582;2023-02-16T09:16:26;32.33;;;20.27;;
2868;SDS011;1442;47.448;8.582;2023-02-16T09:18:57;32.80;;;18.25;;
2868;SDS011;1442;47.448;8.582;2023-02-16T09:21:25;29.65;;;17.63;;
2868;SDS011;1442;47.448;8.582;2023-02-16T09:23:56;32.83;;;17.42;;
2868;SDS011;1442;47.448;8.582;2023-02-16T09:26:25;30.30;;;16.98;;
2868;SDS011;1442;47.448;8.582;2023-02-16T09:28:54;31.40;;;17.02;;
2868;SDS011;1442;47.448;8.582;2023-02-16T09:31:23;31.70;;;18.05;;
2868;SDS011;1442;47.448;8.582;2023-02-16T09:33:51;30.90;;;17.10;;
2868;SDS011;1442;47.448;8.582;2023-02-16T09:36:19;30.48;;;17.48;;
2868;SDS011;1442;47.448;8.582;2023-02-16T09:38:46;32.33;;;18.13;;
2868;SDS011;1442;47.448;8.582;2023-02-16T09:41:17;34.63;;;18.55;;
2868;SDS011;1442;47.448;8.582;2023-02-16T09:43:48;34.10;;;19.33;;
2868;SDS011;1442;47.448;8.582;2023-02-16T09:46:20;34.05;;;18.88;;
2868;SDS011;1442;47.448;8.582;2023-02-16T09:48:49;28.23;;;17.58;;
2868;SDS011;1442;47.448;8.582;2023-02-16T09:51:18;34.95;;;20.00;;
2868;SDS011;1442;47.448;8.582;2023-02-16T09:53:47;33.28;;;18.40;;
2868;SDS011;1442;47.448;8.582;2023-02-16T09:56:20;36.22;;;18.85;;
2868;SDS011;1442;47.448;8.582;2023-02-16T09:58:50;32.83;;;17.13;;
2868;SDS011;1442;47.448;8.582;2023-02-16T10:01:22;33.10;;;17.33;;
2868;SDS011;1442;47.448;8.582;2023-02-16T10:03:59;30.38;;;16.05;;
2868;SDS011;1442;47.448;8.582;2023-02-16T10:06:35;33.35;;;17.17;;
2868;SDS011;1442;47.448;8.582;2023-02-16T10:09:08;29.75;;;15.32;;
2868;SDS011;1442;47.448;8.582;2023-02-16T10:11:38;28.08;;;15.18;;
2868;SDS011;1442;47.448;8.582;2023-02-16T10:14:13;25.75;;;15.38;;
2868;SDS011;1442;47.448;8.582;2023-02-16T10:16:44;28.15;;;15.32;;
2868;SDS011;1442;47.448;8.582;2023-02-16T10:19:14;26.83;;;16.08;;
2868;SDS011;1442;47.448;8.582;2023-02-16T10:21:43;26.88;;;16.00;;
2868;SDS011;1442;47.448;8.582;2023-02-16T10:24:13;25.05;;;15.90;;
2868;SDS011;1442;47.448;8.582;2023-02-16T10:26:43;33.35;;;15.88;;
2868;SDS011;1442;47.448;8.582;2023-02-16T10:29:12;27.08;;;15.98;;
2868;SDS011;1442;47.448;8.582;2023-02-16T10:31:41;27.45;;;16.35;;
2868;SDS011;1442;47.448;8.582;2023-02-16T10:34:15;28.00;;;16.25;;
2868;SDS011;1442;47.448;8.582;2023-02-16T10:36:47;30.95;;;16.17;;
2868;SDS011;1442;47.448;8.582;2023-02-16T10:39:20;28.23;;;16.13;;
2868;SDS011;1442;47.448;8.582;2023-02-16T10:41:51;34.17;;;16.30;;
2868;SDS011;1442;47.448;8.582;2023-02-16T10:44:22;28.58;;;16.10;;
2868;SDS011;1442;47.448;8.582;2023-02-16T10:46:52;28.10;;;15.10;;
2868;SDS011;1442;47.448;8.582;2023-02-16T10:49:22;30.33;;;16.83;;
2868;SDS011;1442;47.448;8.582;2023-02-16T10:51:51;26.88;;;15.27;;
2868;SDS011;1442;47.448;8.582;2023-02-16T10:54:21;28.30;;;14.57;;
2868;SDS011;1442;47.448;8.582;2023-02-16T10:56:51;29.93;;;14.73;;
2868;SDS011;1442;47.448;8.582;2023-02-16T10:59:22;28.85;;;15.18;;
2868;SDS011;1442;47.448;8.582;2023-02-16T11:01:50;28.98;;;15.73;;
2868;SDS011;1442;47.448;8.582;2023-02-16T11:04:35;24.42;;;14.25;;
2868;SDS011;1442;47.448;8.582;2023-02-16T11:07:04;26.80;;;15.05;;
2868;SDS011;1442;47.448;8.582;2023-02-16T11:09:32;25.33;;;13.48;;
2868;SDS011;1442;47.448;8.582;2023-02-16T11:11:59;27.30;;;13.55;;
2868;SDS011;1442;47.448;8.582;2023-02-16T11:14:28;25.92;;;14.48;;
2868;SDS011;1442;47.448;8.582;2023-02-16T11:17:06;23.98;;;13.90;;
2868;SDS011;1442;47.448;8.582;2023-02-16T11:19:36;27.50;;;14.93;;
2868;SDS011;1442;47.448;8.582;2023-02-16T11:22:03;26.20;;;14.10;;
2868;SDS011;1442;47.448;8.582;2023-02-16T11:24:33;29.15;;;14.00;;
2868;SDS011;1442;47.448;8.582;2023-02-16T11:27:02;26.45;;;14.18;;
2868;SDS011;1442;47.448;8.582;2023-02-16T11:29:30;25.55;;;13.82;;
2868;SDS011;1442;47.448;8.582;2023-02-16T11:31:57;23.23;;;12.77;;
2868;SDS011;1442;47.448;8.582;2023-02-16T11:34:27;26.23;;;12.95;;
2868;SDS011;1442;47.448;8.582;2023-02-16T11:37:01;25.10;;;13.07;;
2868;SDS011;1442;47.448;8.582;2023-02-16T11:39:29;22.60;;;12.52;;
2868;SDS011;1442;47.448;8.582;2023-02-16T11:41:59;20.63;;;12.00;;
2868;SDS011;1442;47.448;8.582;2023-02-16T11:44:28;21.77;;;12.75;;
2868;SDS011;1442;47.448;8.582;2023-02-16T11:46:56;23.60;;;13.35;;
2868;SDS011;1442;47.448;8.582;2023-02-16T11:49:33;26.73;;;13.38;;
2868;SDS011;1442;47.448;8.582;2023-02-16T11:52:16;26.67;;;12.70;;
2868;SDS011;1442;47.448;8.582;2023-02-16T11:54:46;24.67;;;12.65;;
2868;SDS011;1442;47.448;8.582;2023-02-16T11:57:13;30.88;;;14.90;;
2868;SDS011;1442;47.448;8.582;2023-02-16T11:59:41;29.35;;;15.38;;
2868;SDS011;1442;47.448;8.582;2023-02-16T12:04:53;28.65;;;14.48;;
2868;SDS011;1442;47.448;8.582;2023-02-16T12:09:55;25.50;;;13.73;;
2868;SDS011;1442;47.448;8.582;2023-02-16T12:12:28;22.80;;;13.38;;
2868;SDS011;1442;47.448;8.582;2023-02-16T12:14:59;24.13;;;12.80;;
2868;SDS011;1442;47.448;8.582;2023-02-16T12:17:32;22.27;;;12.50;;
2868;SDS011;1442;47.448;8.582;2023-02-16T12:20:02;23.48;;;12.68;;
2868;SDS011;1442;47.448;8.582;2023-02-16T12:22:32;22.23;;;12.93;;
2868;SDS011;1442;47.448;8.582;2023-02-16T12:25:08;22.85;;;12.45;;
2868;SDS011;1442;47.448;8.582;2023-02-16T12:30:15;23.92;;;10.75;;
2868;SDS011;1442;47.448;8.582;2023-02-16T12:32:49;21.42;;;11.48;;
2868;SDS011;1442;47.448;8.582;2023-02-16T12:35:22;22.08;;;10.68;;
2868;SDS011;1442;47.448;8.582;2023-02-16T12:37:54;19.05;;;10.57;;
2868;SDS011;1442;47.448;8.582;2023-02-16T12:40:26;19.17;;;10.25;;
2868;SDS011;1442;47.448;8.582;2023-02-16T12:43:01;21.27;;;10.02;;
2868;SDS011;1442;47.448;8.582;2023-02-16T12:45:31;23.67;;;10.93;;
2868;SDS011;1442;47.448;8.582;2023-02-16T12:48:01;18.88;;;9.93;;
2868;SDS011;1442;47.448;8.582;2023-02-16T12:50:33;19.42;;;9.40;;
2868;SDS011;1442;47.448;8.582;2023-02-16T12:53:02;23.38;;;9.27;;
2868;SDS011;1442;47.448;8.582;2023-02-16T12:55:34;21.02;;;9.52;;
2868;SDS011;1442;47.448;8.582;2023-02-16T12:58:07;18.15;;;10.15;;
2868;SDS011;1442;47.448;8.582;2023-02-16T13:00:37;19.25;;;9.43;;
2868;SDS011;1442;47.448;8.582;2023-02-16T13:03:08;20.55;;;9.57;;
2868;SDS011;1442;47.448;8.582;2023-02-16T13:05:39;21.23;;;9.50;;
2868;SDS011;1442;47.448;8.582;2023-02-16T13:08:11;17.92;;;9.15;;
2868;SDS011;1442;47.448;8.582;2023-02-16T13:10:46;21.88;;;9.70;;
2868;SDS011;1442;47.448;8.582;2023-02-16T13:13:18;17.30;;;9.18;;
2868;SDS011;1442;47.448;8.582;2023-02-16T13:15:48;20.00;;;9.30;;
2868;SDS011;1442;47.448;8.582;2023-02-16T13:18:17;17.20;;;9.00;;
2868;SDS011;1442;47.448;8.582;2023-02-16T13:20:47;17.95;;;9.55;;
2868;SDS011;1442;47.448;8.582;2023-02-16T13:23:26;19.02;;;9.38;;
2868;SDS011;1442;47.448;8.582;2023-02-16T13:26:01;19.02;;;9.35;;
2868;SDS011;1442;47.448;8.582;2023-02-16T13:31:22;21.13;;;9.55;;
2868;SDS011;1442;47.448;8.582;2023-02-16T13:39:29;21.40;;;9.13;;
2868;SDS011;1442;47.448;8.582;2023-02-16T13:42:04;21.75;;;8.25;;
2868;SDS011;1442;47.448;8.582;2023-02-16T13:44:34;15.10;;;8.88;;
2868;SDS011;1442;47.448;8.582;2023-02-16T13:47:03;21.33;;;8.70;;
2868;SDS011;1442;47.448;8.582;2023-02-16T13:49:31;19.98;;;8.98;;
2868;SDS011;1442;47.448;8.582;2023-02-16T13:52:00;18.60;;;8.75;;
2868;SDS011;1442;47.448;8.582;2023-02-16T13:54:28;14.50;;;7.55;;
2868;SDS011;1442;47.448;8.582;2023-02-16T13:56:57;18.38;;;7.32;;
2868;SDS011;1442;47.448;8.582;2023-02-16T14:05:09;17.25;;;9.02;;
2868;SDS011;1442;47.448;8.582;2023-02-16T14:07:37;21.65;;;10.00;;
2868;SDS011;1442;47.448;8.582;2023-02-16T14:10:05;17.73;;;9.65;;
2868;SDS011;1442;47.448;8.582;2023-02-16T14:12:36;21.35;;;10.18;;
2868;SDS011;1442;47.448;8.582;2023-02-16T14:15:03;17.40;;;9.48;;
2868;SDS011;1442;47.448;8.582;2023-02-16T14:17:32;22.20;;;9.98;;
2868;SDS011;1442;47.448;8.582;2023-02-16T14:20:01;20.27;;;10.43;;
2868;SDS011;1442;47.448;8.582;2023-02-16T14:22:47;21.83;;;10.38;;
2868;SDS011;1442;47.448;8.582;2023-02-16T14:25:36;16.55;;;9.18;;
2868;SDS011;1442;47.448;8.582;2023-02-16T14:28:05;18.73;;;9.82;;
2868;SDS011;1442;47.448;8.582;2023-02-16T14:30:52;25.85;;;10.27;;
2868;SDS011;1442;47.448;8.582;2023-02-16T14:33:21;19.05;;;9.95;;
2868;SDS011;1442;47.448;8.582;2023-02-16T14:36:03;34.15;;;10.82;;
2868;SDS011;1442;47.448;8.582;2023-02-16T14:38:34;37.38;;;10.45;;
2868;SDS011;1442;47.448;8.582;2023-02-16T14:41:03;19.98;;;10.25;;
2868;SDS011;1442;47.448;8.582;2023-02-16T14:43:33;22.20;;;9.82;;
2868;SDS011;1442;47.448;8.582;2023-02-16T14:48:56;19.85;;;8.57;;
2868;SDS011;1442;47.448;8.582;2023-02-16T14:54:20;21.48;;;9.45;;
2868;SDS011;1442;47.448;8.582;2023-02-16T14:56:54;19.23;;;8.85;;
2868;SDS011;1442;47.448;8.582;2023-02-16T14:59:27;17.98;;;9.75;;
2868;SDS011;1442;47.448;8.582;2023-02-16T15:01:56;16.27;;;8.77;;
2868;SDS011;1442;47.448;8.582;2023-02-16T15:04:26;18.25;;;8.63;;
2868;SDS011;1442;47.448;8.582;2023-02-16T15:06:54;18.27;;;8.27;;
2868;SDS011;1442;47.448;8.582;2023-02-16T15:09:25;23.05;;;9.23;;
2868;SDS011;1442;47.448;8.582;2023-02-16T15:11:53;18.98;;;8.68;;
2868;SDS011;1442;47.448;8.582;2023-02-16T15:14:39;17.55;;;8.48;;
2868;SDS011;1442;47.448;8.582;2023-02-16T15:17:09;15.55;;;8.35;;
2868;SDS011;1442;47.448;8.582;2023-02-16T15:19:36;21.65;;;9.90;;
2868;SDS011;1442;47.448;8.582;2023-02-16T15:22:07;16.58;;;9.48;;
2868;SDS011;1442;47.448;8.582;2023-02-16T15:24:36;22.30;;;9.45;;
2868;SDS011;1442;47.448;8.582;2023-02-16T15:27:03;17.83;;;9.35;;
2868;SDS011;1442;47.448;8.582;2023-02-16T15:29:31;15.43;;;8.77;;
2868;SDS011;1442;47.448;8.582;2023-02-16T15:31:58;18.92;;;8.70;;
2868;SDS011;1442;47.448;8.582;2023-02-16T15:34:26;17.70;;;8.75;;
2868;SDS011;1442;47.448;8.582;2023-02-16T15:36:54;19.05;;;8.80;;
2868;SDS011;1442;47.448;8.582;2023-02-16T15:39:25;17.30;;;8.70;;
2868;SDS011;1442;47.448;8.582;2023-02-16T15:44:34;17.95;;;8.20;;
2868;SDS011;1442;47.448;8.582;2023-02-16T15:47:06;15.43;;;7.85;;
2868;SDS011;1442;47.448;8.582;2023-02-16T15:49:33;15.73;;;8.55;;